createdAt,value
2018-04-20T00:00:58.613Z,15.50
2018-04-20T00:01:58.623Z,13.20
2018-04-20T00:02:58.633Z,19.60
2018-04-20T00:03:58.652Z,15.80
2018-04-20T00:04:58.674Z,16.90
2018-04-20T00:05:58.711Z,13.80
2018-04-20T00:06:58.717Z,15.80
2018-04-20T00:07:58.739Z,12.70
2018-04-20T00:08:58.759Z,15.90
2018-04-20T00:09:58.780Z,18.50
2018-04-20T00:10:58.802Z,16.60
2018-04-20T00:11:58.834Z,23.00
2018-04-20T00:12:58.846Z,15.40
2018-04-20T00:13:58.866Z,17.80
2018-04-20T00:14:58.888Z,15.60
2018-04-20T00:15:58.910Z,16.10
2018-04-20T00:16:58.930Z,16.40
2018-04-20T00:17:58.952Z,18.20
2018-04-20T00:18:58.973Z,16.40
2018-04-20T00:19:58.995Z,19.60
2018-04-20T00:20:59.017Z,17.50
2018-04-20T00:21:59.037Z,17.60
2018-04-20T00:22:59.059Z,18.70
2018-04-20T00:23:59.080Z,18.70
2018-04-20T00:24:59.104Z,17.20
2018-04-20T00:25:59.123Z,19.00
2018-04-20T00:26:59.144Z,19.50
2018-04-20T00:27:59.166Z,16.20
2018-04-20T00:28:59.187Z,18.10
2018-04-20T00:29:59.209Z,19.80
2018-04-20T00:30:59.219Z,15.90
2018-04-20T00:31:59.239Z,18.20
2018-04-20T00:32:59.261Z,15.80
2018-04-20T00:33:59.285Z,17.10
2018-04-20T00:34:59.302Z,19.50
2018-04-20T00:35:59.324Z,16.60
2018-04-20T00:36:59.349Z,18.70
2018-04-20T00:37:59.367Z,16.60
2018-04-20T00:38:59.387Z,19.20
2018-04-20T00:39:59.422Z,19.80
2018-04-20T00:40:59.430Z,20.20
2018-04-20T00:41:59.455Z,19.40
2018-04-20T00:42:59.481Z,18.00
2018-04-20T00:43:59.497Z,17.80
2018-04-20T00:44:59.516Z,18.20
2018-04-20T00:45:59.537Z,21.80
2018-04-20T00:46:59.559Z,17.30
2018-04-20T00:47:59.583Z,21.00
2018-04-20T00:48:59.615Z,18.50
2018-04-20T00:49:59.627Z,21.00
2018-04-20T00:50:59.633Z,22.20
2018-04-20T00:51:59.655Z,17.50
2018-04-20T00:52:59.675Z,22.50
2018-04-20T00:53:59.700Z,25.00
2018-04-20T00:54:59.717Z,18.30
2018-04-20T00:55:59.740Z,24.30
2018-04-20T00:56:59.762Z,23.50
2018-04-20T00:57:59.782Z,20.60
2018-04-20T00:58:59.803Z,21.80
2018-04-20T00:59:59.825Z,18.20
2018-04-20T01:00:59.847Z,20.80
2018-04-20T01:01:59.867Z,23.80
2018-04-20T01:02:59.893Z,26.30
2018-04-20T01:03:59.911Z,21.00
2018-04-20T01:04:59.921Z,20.20
2018-04-20T01:05:59.942Z,26.20
2018-04-20T01:06:59.962Z,20.80
2018-04-20T01:07:59.983Z,21.90
2018-04-20T01:09:00.004Z,21.50
2018-04-20T01:10:00.026Z,22.20
2018-04-20T01:11:00.061Z,20.10
2018-04-20T01:12:00.067Z,22.70
2018-04-20T01:13:00.090Z,23.50
2018-04-20T01:14:00.110Z,22.50
2018-04-20T01:15:00.132Z,28.00
2018-04-20T01:16:00.152Z,23.30
2018-04-20T01:17:00.163Z,20.90
2018-04-20T01:18:00.184Z,26.60
2018-04-20T01:19:00.205Z,20.30
2018-04-20T01:20:00.226Z,22.60
2018-04-20T01:21:00.250Z,30.10
2018-04-20T01:22:00.268Z,23.30
2018-04-20T01:23:00.290Z,24.70
2018-04-20T01:24:00.311Z,21.70
2018-04-20T01:25:00.333Z,25.60
2018-04-20T01:26:00.354Z,25.90
2018-04-20T01:27:00.376Z,27.10
2018-04-20T01:28:00.385Z,25.70
2018-04-20T01:29:00.405Z,24.80
2018-04-20T01:30:00.488Z,23.50
2018-04-20T01:31:00.447Z,27.50
2018-04-20T01:32:00.469Z,24.00
2018-04-20T01:33:00.491Z,29.40
2018-04-20T01:34:00.515Z,24.10
2018-04-20T01:35:00.533Z,26.30
2018-04-20T01:36:00.554Z,20.80
2018-04-20T01:37:00.575Z,24.60
2018-04-20T01:38:00.597Z,27.10
2018-04-20T01:39:00.607Z,22.90
2018-04-20T01:40:00.628Z,26.60
2018-04-20T01:41:00.648Z,22.20
2018-04-20T01:42:00.671Z,29.70
2018-04-20T01:43:00.692Z,23.80
2018-04-20T01:44:00.714Z,26.40
2018-04-20T01:45:00.734Z,21.40
2018-04-20T01:46:00.764Z,23.40
2018-04-20T01:47:00.777Z,25.30
2018-04-20T01:48:00.787Z,28.30
2018-04-20T01:49:00.806Z,23.50
2018-04-20T01:50:00.828Z,22.50
2018-04-20T01:51:00.864Z,25.30
2018-04-20T01:52:00.873Z,30.70
2018-04-20T01:53:00.891Z,22.80
2018-04-20T01:54:00.913Z,24.10
2018-04-20T01:55:00.934Z,28.90
2018-04-20T01:56:00.955Z,25.50
2018-04-20T01:57:00.978Z,25.20
2018-04-20T01:58:00.987Z,28.00
2018-04-20T01:59:01.008Z,28.00
2018-04-20T02:00:01.029Z,26.50
2018-04-20T02:01:01.055Z,23.90
2018-04-20T02:02:01.072Z,31.00
2018-04-20T02:03:01.094Z,27.60
2018-04-20T02:04:01.115Z,26.60
2018-04-20T02:05:01.141Z,23.40
2018-04-20T02:06:01.158Z,26.70
2018-04-20T02:07:01.167Z,26.30
2018-04-20T02:08:01.188Z,31.80
2018-04-20T02:09:01.209Z,26.70
2018-04-20T02:10:01.233Z,29.70
2018-04-20T02:11:01.253Z,24.80
2018-04-20T02:12:01.296Z,30.90
2018-04-20T02:13:01.310Z,25.80
2018-04-20T02:14:01.317Z,30.40
2018-04-20T02:15:01.327Z,31.70
2018-04-20T02:16:01.349Z,32.60
2018-04-20T02:17:01.372Z,30.00
2018-04-20T02:18:01.392Z,27.60
2018-04-20T02:19:01.413Z,31.30
2018-04-20T02:20:01.450Z,35.40
2018-04-20T02:21:01.456Z,30.90
2018-04-20T02:22:01.491Z,27.70
2018-04-20T02:23:01.498Z,27.40
2018-04-20T02:24:01.508Z,29.40
2018-04-20T02:25:01.534Z,33.10
2018-04-20T02:26:01.549Z,32.40
2018-04-20T02:27:01.574Z,29.30
2018-04-20T02:28:01.595Z,31.30
2018-04-20T02:29:01.614Z,30.20
2018-04-20T02:30:01.637Z,33.80
2018-04-20T02:31:01.683Z,28.60
2018-04-20T02:32:01.667Z,31.30
2018-04-20T02:33:01.688Z,30.40
2018-04-20T02:34:01.722Z,27.70
2018-04-20T02:35:01.731Z,32.80
2018-04-20T02:36:01.756Z,32.20
2018-04-20T02:37:01.776Z,28.80
2018-04-20T02:38:01.800Z,29.30
2018-04-20T02:39:01.816Z,30.80
2018-04-20T02:40:01.825Z,27.50
2018-04-20T02:41:01.846Z,31.90
2018-04-20T02:42:01.875Z,31.50
2018-04-20T02:43:01.888Z,31.10
2018-04-20T02:44:01.923Z,33.80
2018-04-20T02:45:01.935Z,31.10
2018-04-20T02:46:01.953Z,29.50
2018-04-20T02:47:01.965Z,32.90
2018-04-20T02:48:01.985Z,32.10
2018-04-20T02:49:02.014Z,32.80
2018-04-20T02:50:02.027Z,34.70
2018-04-20T02:51:02.050Z,33.70
2018-04-20T02:52:02.070Z,36.10
2018-04-20T02:53:02.092Z,28.00
2018-04-20T02:54:02.114Z,34.30
2018-04-20T02:55:02.129Z,36.50
2018-04-20T02:56:02.142Z,31.70
2018-04-20T02:57:02.177Z,37.90
2018-04-20T02:58:02.190Z,35.20
2018-04-20T02:59:02.209Z,35.10
2018-04-20T03:00:02.229Z,31.50
2018-04-20T03:01:02.250Z,34.70
2018-04-20T03:02:02.271Z,32.10
2018-04-20T03:03:02.279Z,35.40
2018-04-20T03:04:02.305Z,33.70
2018-04-20T03:05:02.322Z,34.50
2018-04-20T03:06:02.351Z,40.40
2018-04-20T03:07:02.366Z,33.80
2018-04-20T03:08:02.386Z,36.80
2018-04-20T03:09:02.411Z,31.20
2018-04-20T03:10:02.418Z,34.50
2018-04-20T03:11:02.439Z,35.40
2018-04-20T03:12:02.459Z,40.70
2018-04-20T03:13:02.483Z,35.10
2018-04-20T03:14:02.501Z,39.80
2018-04-20T03:15:02.523Z,40.60
2018-04-20T03:16:02.544Z,43.50
2018-04-20T03:17:02.554Z,38.90
2018-04-20T03:18:02.576Z,38.90
2018-04-20T03:19:02.599Z,43.00
2018-04-20T03:20:02.618Z,42.40
2018-04-20T03:21:02.639Z,41.20
2018-04-20T03:22:02.663Z,40.40
2018-04-20T03:23:02.671Z,37.20
2018-04-20T03:24:02.691Z,38.90
2018-04-20T03:25:02.712Z,40.30
2018-04-20T03:26:02.733Z,39.80
2018-04-20T03:27:02.765Z,39.70
2018-04-20T03:28:02.790Z,41.00
2018-04-20T03:29:02.799Z,35.70
2018-04-20T03:30:02.820Z,40.30
2018-04-20T03:31:03.130Z,41.90
2018-04-20T03:32:02.850Z,42.50
2018-04-20T03:33:02.872Z,47.90
2018-04-20T03:34:02.893Z,43.20
2018-04-20T03:35:02.915Z,47.00
2018-04-20T03:36:03.186Z,40.80
2018-04-20T03:37:02.946Z,41.70
2018-04-20T03:38:02.966Z,45.10
2018-04-20T03:39:02.987Z,48.80
2018-04-20T03:40:03.009Z,40.60
2018-04-20T03:41:03.044Z,42.40
2018-04-20T03:42:03.052Z,44.60
2018-04-20T03:43:03.075Z,40.50
2018-04-20T03:44:03.082Z,39.50
2018-04-20T03:45:03.103Z,45.40
2018-04-20T03:46:03.128Z,44.10
2018-04-20T03:47:03.147Z,45.90
2018-04-20T03:48:03.169Z,46.60
2018-04-20T03:49:03.190Z,48.00
2018-04-20T03:50:03.211Z,45.80
2018-04-20T03:51:03.219Z,49.00
2018-04-20T03:52:03.240Z,42.20
2018-04-20T03:53:03.261Z,42.90
2018-04-20T03:54:03.288Z,50.50
2018-04-20T03:55:03.305Z,46.00
2018-04-20T03:56:03.325Z,46.50
2018-04-20T03:57:03.335Z,48.90
2018-04-20T03:58:03.357Z,43.80
2018-04-20T03:59:03.379Z,47.80
2018-04-20T04:00:03.400Z,41.60
2018-04-20T04:01:03.424Z,48.60
2018-04-20T04:02:03.442Z,46.70
2018-04-20T04:03:03.522Z,46.10
2018-04-20T04:04:03.472Z,47.20
2018-04-20T04:05:03.492Z,46.90
2018-04-20T04:06:03.514Z,54.20
2018-04-20T04:07:03.535Z,52.00
2018-04-20T04:08:03.556Z,45.30
2018-04-20T04:09:03.583Z,46.40
2018-04-20T04:10:03.589Z,46.50
2018-04-20T04:11:03.609Z,44.80
2018-04-20T04:12:03.636Z,43.50
2018-04-20T04:13:03.652Z,51.30
2018-04-20T04:14:03.673Z,51.90
2018-04-20T04:15:03.695Z,48.30
2018-04-20T04:16:03.716Z,48.60
2018-04-20T04:17:03.724Z,47.00
2018-04-20T04:18:03.804Z,44.60
2018-04-20T04:19:03.767Z,45.90
2018-04-20T04:20:03.789Z,57.60
2018-04-20T04:21:03.810Z,51.50
2018-04-20T04:22:03.831Z,49.30
2018-04-20T04:23:03.841Z,46.60
2018-04-20T04:24:03.862Z,44.60
2018-04-20T04:25:03.884Z,43.90
2018-04-20T04:26:03.905Z,51.60
2018-04-20T04:27:03.926Z,45.10
2018-04-20T04:28:03.947Z,45.80
2018-04-20T04:29:03.969Z,39.50
2018-04-20T04:30:03.977Z,49.90
2018-04-20T04:31:03.999Z,47.90
2018-04-20T04:32:04.020Z,40.00
2018-04-20T04:33:04.041Z,50.30
2018-04-20T04:34:04.063Z,44.50
2018-04-20T04:35:04.087Z,44.00
2018-04-20T04:36:04.094Z,45.50
2018-04-20T04:37:04.115Z,45.10
2018-04-20T04:38:04.137Z,45.00
2018-04-20T04:39:04.158Z,48.00
2018-04-20T04:40:04.180Z,45.80
2018-04-20T04:41:04.208Z,52.20
2018-04-20T04:42:04.222Z,42.50
2018-04-20T04:43:04.234Z,45.20
2018-04-20T04:44:04.251Z,41.80
2018-04-20T04:45:04.276Z,46.50
2018-04-20T04:46:04.294Z,42.20
2018-04-20T04:47:04.318Z,43.10
2018-04-20T04:48:04.341Z,42.30
2018-04-20T04:49:04.358Z,40.20
2018-04-20T04:50:04.379Z,39.00
2018-04-20T04:51:04.389Z,49.70
2018-04-20T04:52:04.414Z,45.00
2018-04-20T04:53:04.432Z,43.70
2018-04-20T04:54:04.454Z,42.00
2018-04-20T04:55:04.475Z,42.60
2018-04-20T04:56:04.495Z,43.30
2018-04-20T04:57:04.517Z,43.80
2018-04-20T04:58:04.527Z,44.40
2018-04-20T04:59:04.547Z,36.20
2018-04-20T05:00:04.568Z,39.50
2018-04-20T05:01:04.589Z,39.70
2018-04-20T05:02:04.610Z,40.90
2018-04-20T05:03:04.635Z,38.30
2018-04-20T05:04:04.654Z,40.70
2018-04-20T05:05:04.675Z,41.80
2018-04-20T05:06:04.697Z,40.30
2018-04-20T05:07:04.707Z,38.60
2018-04-20T05:08:04.731Z,36.40
2018-04-20T05:09:04.786Z,43.00
2018-04-20T05:10:04.770Z,36.90
2018-04-20T05:11:04.790Z,37.50
2018-04-20T05:12:04.813Z,42.60
2018-04-20T05:13:04.834Z,41.10
2018-04-20T05:14:04.856Z,42.30
2018-04-20T05:15:04.865Z,41.30
2018-04-20T05:16:04.888Z,41.10
2018-04-20T05:17:04.907Z,40.60
2018-04-20T05:18:04.928Z,40.60
2018-04-20T05:19:04.962Z,34.60
2018-04-20T05:20:04.971Z,38.50
2018-04-20T05:21:04.992Z,37.20
2018-04-20T05:22:05.013Z,36.50
2018-04-20T05:23:05.036Z,38.00
2018-04-20T05:24:05.063Z,38.80
2018-04-20T05:25:05.078Z,33.80
2018-04-20T05:26:05.100Z,38.60
2018-04-20T05:27:05.109Z,34.70
2018-04-20T05:28:05.131Z,33.90
2018-04-20T05:29:05.151Z,30.10
2018-04-20T05:30:05.173Z,34.50
2018-04-20T05:31:05.195Z,36.80
2018-04-20T05:32:05.223Z,36.00
2018-04-20T05:33:05.238Z,36.20
2018-04-20T05:34:05.258Z,31.20
2018-04-20T05:35:05.280Z,29.90
2018-04-20T05:36:05.301Z,28.70
2018-04-20T05:37:05.322Z,32.60
2018-04-20T05:38:05.336Z,30.70
2018-04-20T05:39:05.352Z,30.00
2018-04-20T05:40:05.386Z,28.50
2018-04-20T05:41:05.394Z,29.40
2018-04-20T05:42:05.416Z,32.70
2018-04-20T05:43:05.438Z,28.10
2018-04-20T05:44:05.459Z,28.70
2018-04-20T05:45:05.481Z,29.10
2018-04-20T05:46:05.501Z,25.00
2018-04-20T05:47:05.522Z,26.40
2018-04-20T05:48:05.544Z,27.30
2018-04-20T05:49:05.578Z,25.10
2018-04-20T05:50:05.587Z,25.60
2018-04-20T05:51:05.607Z,29.00
2018-04-20T05:52:05.630Z,25.70
2018-04-20T05:53:05.651Z,28.30
2018-04-20T05:54:05.664Z,23.00
2018-04-20T05:55:05.682Z,27.60
2018-04-20T05:56:05.704Z,29.40
2018-04-20T05:57:05.724Z,24.00
2018-04-20T05:58:05.748Z,24.80
2018-04-20T05:59:05.767Z,23.60
2018-04-20T06:00:05.789Z,23.80
2018-04-20T06:01:05.840Z,25.80
2018-04-20T06:02:05.832Z,22.10
2018-04-20T06:03:05.859Z,26.30
2018-04-20T06:04:05.874Z,25.00
2018-04-20T06:05:05.896Z,22.80
2018-04-20T06:06:05.918Z,25.20
2018-04-20T06:07:05.960Z,22.60
2018-04-20T06:08:05.960Z,25.10
2018-04-20T06:09:05.981Z,26.30
2018-04-20T06:10:06.003Z,22.70
2018-04-20T06:11:06.025Z,20.00
2018-04-20T06:12:06.050Z,30.20
2018-04-20T06:13:06.067Z,23.40
2018-04-20T06:14:06.091Z,22.10
2018-04-20T06:15:06.110Z,22.00
2018-04-20T06:16:06.131Z,18.10
2018-04-20T06:17:06.153Z,21.70
2018-04-20T06:18:06.174Z,22.20
2018-04-20T06:19:06.195Z,21.50
2018-04-20T06:20:06.217Z,20.80
2018-04-20T06:21:06.243Z,20.90
2018-04-20T06:22:06.259Z,17.00
2018-04-20T06:23:06.280Z,17.40
2018-04-20T06:24:06.302Z,19.90
2018-04-20T06:25:06.324Z,17.20
2018-04-20T06:26:06.346Z,19.50
2018-04-20T06:27:06.366Z,21.80
2018-04-20T06:28:06.388Z,15.10
2018-04-20T06:29:06.409Z,15.40
2018-04-20T06:30:06.436Z,14.80
2018-04-20T06:31:06.463Z,18.70
2018-04-20T06:32:06.485Z,15.50
2018-04-20T06:33:06.506Z,15.10
2018-04-20T06:34:06.544Z,15.80
2018-04-20T06:35:06.549Z,18.50
2018-04-20T06:36:06.571Z,14.70
2018-04-20T06:37:06.593Z,17.80
2018-04-20T06:38:06.629Z,15.90
2018-04-20T06:39:06.648Z,17.30
2018-04-20T06:40:06.668Z,13.70
2018-04-20T06:41:06.690Z,17.90
2018-04-20T06:42:06.737Z,15.50
2018-04-20T06:43:06.744Z,13.20
2018-04-20T06:44:06.767Z,19.90
2018-04-20T06:45:06.789Z,13.00
2018-04-20T06:46:06.823Z,15.60
2018-04-20T06:47:06.845Z,14.00
2018-04-20T06:48:06.866Z,10.80
2018-04-20T06:49:06.903Z,13.00
2018-04-20T06:50:06.920Z,14.20
2018-04-20T06:51:06.941Z,14.40
2018-04-20T06:52:06.964Z,12.20
2018-04-20T06:53:06.997Z,13.70
2018-04-20T06:54:07.019Z,15.50
2018-04-20T06:55:07.051Z,12.80
2018-04-20T06:56:07.112Z,13.70
2018-04-20T06:57:07.096Z,13.10
2018-04-20T06:58:07.130Z,13.60
2018-04-20T06:59:07.151Z,14.00
2018-04-20T07:00:07.192Z,13.30
2018-04-20T07:01:07.206Z,15.60
2018-04-20T07:02:07.227Z,14.20
2018-04-20T07:03:07.261Z,14.00
2018-04-20T07:04:07.328Z,13.20
2018-04-20T07:05:07.316Z,16.10
2018-04-20T07:06:07.337Z,16.40
2018-04-20T07:07:07.372Z,23.30
2018-04-20T07:08:07.393Z,15.00
2018-04-20T07:09:07.426Z,19.80
2018-04-20T07:10:07.448Z,17.10
2018-04-20T07:11:07.482Z,16.30
2018-04-20T07:12:07.511Z,35.50
2018-04-20T07:13:07.536Z,18.20
2018-04-20T07:14:07.559Z,16.00
2018-04-20T07:15:07.593Z,17.10
2018-04-20T07:16:07.614Z,12.50
2018-04-20T07:17:07.647Z,13.60
2018-04-20T07:18:07.669Z,15.50
2018-04-20T07:19:07.704Z,11.90
2018-04-20T07:20:07.737Z,13.90
2018-04-20T07:21:07.771Z,16.30
2018-04-20T07:22:07.796Z,12.50
2018-04-20T07:23:07.814Z,12.10
2018-04-20T07:24:07.847Z,18.40
2018-04-20T07:25:07.882Z,13.00
2018-04-20T07:26:07.903Z,13.80
2018-04-20T07:27:07.939Z,14.20
2018-04-20T07:28:07.958Z,11.10
2018-04-20T07:29:07.991Z,14.00
2018-04-20T07:30:08.031Z,16.40
2018-04-20T07:31:08.060Z,13.40
2018-04-20T07:32:08.081Z,13.60
2018-04-20T07:33:08.114Z,12.10
2018-04-20T07:34:08.136Z,15.60
2018-04-20T07:35:08.170Z,14.40
2018-04-20T07:36:08.203Z,13.10
2018-04-20T07:37:08.229Z,14.90
2018-04-20T07:38:08.259Z,12.70
2018-04-20T07:39:08.293Z,11.60
2018-04-20T07:40:08.328Z,13.80
2018-04-20T07:41:08.349Z,11.80
2018-04-20T07:42:08.382Z,14.00
2018-04-20T07:43:08.417Z,10.30
2018-04-20T07:44:08.449Z,11.80
2018-04-20T07:45:08.476Z,12.90
2018-04-20T07:46:08.507Z,13.00
2018-04-20T07:47:08.539Z,10.10
2018-04-20T07:48:08.575Z,9.50
2018-04-20T07:49:08.595Z,13.30
2018-04-20T07:50:08.627Z,12.30
2018-04-20T07:51:08.663Z,13.30
2018-04-20T07:52:08.696Z,11.20
2018-04-20T07:53:08.731Z,15.50
2018-04-20T07:54:08.751Z,11.50
2018-04-20T07:55:08.797Z,10.10
2018-04-20T07:56:08.819Z,9.50
2018-04-20T07:57:08.853Z,10.10
2018-04-20T07:58:08.887Z,8.70
2018-04-20T07:59:08.920Z,12.00
2018-04-20T08:00:08.944Z,10.10
2018-04-20T08:01:08.977Z,10.60
2018-04-20T08:02:09.009Z,13.40
2018-04-20T08:03:09.044Z,12.10
2018-04-20T08:04:09.077Z,11.90
2018-04-20T08:05:09.112Z,10.60
2018-04-20T08:06:09.145Z,8.80
2018-04-20T08:07:09.180Z,9.70
2018-04-20T08:08:09.201Z,9.30
2018-04-20T08:09:09.234Z,7.30
2018-04-20T08:10:09.269Z,8.10
2018-04-20T08:11:09.305Z,7.90
2018-04-20T08:12:09.336Z,10.40
2018-04-20T08:13:09.358Z,9.10
2018-04-20T08:14:09.390Z,11.40
2018-04-20T08:15:09.432Z,8.20
2018-04-20T08:16:09.459Z,12.40
2018-04-20T08:17:09.480Z,10.70
2018-04-20T08:18:09.514Z,20.50
2018-04-20T08:19:09.560Z,9.30
2018-04-20T08:20:09.641Z,8.70
2018-04-20T08:21:09.603Z,12.50
2018-04-20T08:22:09.637Z,9.30
2018-04-20T08:23:09.658Z,11.00
2018-04-20T08:24:09.692Z,10.20
2018-04-20T08:25:09.715Z,13.70
2018-04-20T08:26:09.750Z,10.70
2018-04-20T08:27:09.771Z,12.30
2018-04-20T08:28:09.804Z,9.70
2018-04-20T08:29:09.838Z,15.40
2018-04-20T08:30:09.859Z,11.50
2018-04-20T08:31:09.893Z,10.50
2018-04-20T08:32:09.915Z,8.50
2018-04-20T08:33:09.947Z,7.90
2018-04-20T08:34:10.029Z,10.50
2018-04-20T08:35:10.003Z,9.20
2018-04-20T08:36:10.038Z,10.30
2018-04-20T08:37:10.058Z,8.20
2018-04-20T08:38:10.098Z,9.40
2018-04-20T08:39:10.114Z,11.90
2018-04-20T08:40:10.164Z,9.60
2018-04-20T08:41:10.170Z,13.20
2018-04-20T08:42:10.203Z,13.80
2018-04-20T08:43:10.224Z,12.80
2018-04-20T08:44:10.258Z,9.00
2018-04-20T08:45:10.281Z,10.90
2018-04-20T08:46:10.319Z,8.60
2018-04-20T08:47:10.340Z,14.30
2018-04-20T08:48:10.367Z,9.80
2018-04-20T08:49:10.391Z,12.90
2018-04-20T08:50:10.428Z,14.90
2018-04-20T08:51:10.446Z,9.40
2018-04-20T08:52:10.482Z,13.10
2018-04-20T08:53:10.500Z,12.10
2018-04-20T08:54:10.534Z,11.50
2018-04-20T08:55:10.556Z,10.70
2018-04-20T08:56:10.589Z,11.50
2018-04-20T08:57:10.611Z,14.10
2018-04-20T08:58:10.644Z,9.40
2018-04-20T08:59:10.668Z,14.80
2018-04-20T09:00:10.703Z,10.70
2018-04-20T09:01:10.722Z,11.20
2018-04-20T09:02:10.755Z,21.70
2018-04-20T09:03:10.788Z,13.20
2018-04-20T09:04:10.810Z,24.00
2018-04-20T09:05:10.834Z,19.50
2018-04-20T09:06:10.866Z,17.30
2018-04-20T09:07:10.887Z,12.30
2018-04-20T09:08:10.921Z,8.80
2018-04-20T09:09:10.942Z,14.40
2018-04-20T09:10:10.977Z,10.00
2018-04-20T09:11:10.998Z,10.30
2018-04-20T09:12:11.030Z,14.30
2018-04-20T09:13:11.053Z,10.90
2018-04-20T09:14:11.088Z,8.00
2018-04-20T09:15:11.109Z,14.10
2018-04-20T09:16:11.141Z,15.00
2018-04-20T09:17:11.163Z,11.30
2018-04-20T09:18:11.198Z,7.70
2018-04-20T09:19:11.219Z,12.10
2018-04-20T09:20:11.254Z,11.40
2018-04-20T09:21:11.274Z,10.90
2018-04-20T09:22:11.308Z,9.10
2018-04-20T09:23:11.329Z,10.50
2018-04-20T09:24:11.368Z,9.60
2018-04-20T09:25:11.390Z,12.50
2018-04-20T09:26:11.419Z,12.20
2018-04-20T09:27:11.442Z,11.40
2018-04-20T09:28:11.473Z,8.50
2018-04-20T09:29:11.507Z,9.20
2018-04-20T09:30:11.528Z,10.10
2018-04-20T09:31:11.550Z,8.30
2018-04-20T09:32:11.585Z,10.40
2018-04-20T09:33:11.606Z,9.40
2018-04-20T09:34:11.639Z,11.80
2018-04-20T09:35:11.673Z,8.50
2018-04-20T09:36:11.694Z,8.70
2018-04-20T09:37:11.729Z,12.30
2018-04-20T09:38:11.750Z,10.00
2018-04-20T09:39:11.783Z,8.50
2018-04-20T09:40:11.805Z,11.10
2018-04-20T09:41:11.839Z,9.70
2018-04-20T09:42:11.860Z,14.00
2018-04-20T09:43:11.895Z,13.50
2018-04-20T09:44:11.915Z,10.70
2018-04-20T09:45:11.950Z,9.40
2018-04-20T09:46:12.020Z,12.40
2018-04-20T09:47:12.005Z,9.10
2018-04-20T09:48:12.026Z,8.50
2018-04-20T09:49:12.061Z,7.10
2018-04-20T09:50:12.096Z,9.40
2018-04-20T09:51:12.115Z,7.60
2018-04-20T09:52:12.150Z,12.50
2018-04-20T09:53:12.171Z,11.20
2018-04-20T09:54:12.204Z,8.50
2018-04-20T09:55:12.225Z,7.50
2018-04-20T09:56:12.263Z,6.90
2018-04-20T09:57:12.283Z,12.60
2018-04-20T09:58:12.315Z,15.30
2018-04-20T09:59:12.338Z,20.80
2018-04-20T10:00:12.373Z,10.80
2018-04-20T10:01:12.392Z,7.90
2018-04-20T10:02:12.424Z,7.90
2018-04-20T10:03:12.459Z,6.90
2018-04-20T10:04:12.480Z,8.00
2018-04-20T10:05:12.515Z,12.30
2018-04-20T10:06:12.536Z,12.30
2018-04-20T10:07:12.571Z,11.70
2018-04-20T10:08:12.592Z,11.60
2018-04-20T10:09:12.638Z,13.00
2018-04-20T10:10:12.659Z,6.90
2018-04-20T10:11:12.681Z,6.30
2018-04-20T10:12:12.713Z,10.30
2018-04-20T10:13:12.736Z,7.60
2018-04-20T10:14:12.772Z,10.30
2018-04-20T10:15:12.803Z,10.00
2018-04-20T10:16:12.825Z,10.20
2018-04-20T10:17:12.863Z,21.50
2018-04-20T10:18:12.892Z,9.50
2018-04-20T10:19:12.914Z,18.60
2018-04-20T10:20:12.949Z,14.20
2018-04-20T10:21:12.981Z,10.40
2018-04-20T10:22:13.017Z,10.00
2018-04-20T10:23:13.050Z,6.50
2018-04-20T10:24:13.072Z,8.50
2018-04-20T10:25:13.105Z,9.30
2018-04-20T10:26:13.142Z,11.20
2018-04-20T10:27:13.173Z,7.50
2018-04-20T10:28:13.206Z,8.60
2018-04-20T10:29:13.241Z,8.40
2018-04-20T10:30:13.274Z,7.90
2018-04-20T10:31:13.308Z,11.00
2018-04-20T10:32:13.342Z,9.70
2018-04-20T10:33:13.376Z,12.00
2018-04-20T10:34:13.410Z,6.20
2018-04-20T10:35:13.446Z,7.20
2018-04-20T10:36:13.491Z,7.10
2018-04-20T10:37:13.524Z,9.00
2018-04-20T10:38:13.558Z,9.50
2018-04-20T10:39:13.591Z,6.90
2018-04-20T10:40:13.626Z,6.90
2018-04-20T10:41:13.673Z,7.90
2018-04-20T10:42:13.705Z,7.30
2018-04-20T10:43:13.740Z,10.90
2018-04-20T10:44:13.790Z,10.10
2018-04-20T10:45:13.819Z,7.80
2018-04-20T10:46:13.866Z,6.10
2018-04-20T10:47:13.900Z,9.30
2018-04-20T10:48:13.954Z,10.20
2018-04-20T10:49:13.979Z,8.10
2018-04-20T10:50:14.015Z,7.80
2018-04-20T10:51:14.061Z,8.30
2018-04-20T10:52:14.094Z,7.70
2018-04-20T10:53:14.139Z,8.20
2018-04-20T10:54:14.186Z,6.90
2018-04-20T10:55:14.220Z,5.40
2018-04-20T10:56:14.267Z,7.70
2018-04-20T10:57:14.300Z,6.20
2018-04-20T10:58:14.346Z,6.60
2018-04-20T10:59:14.381Z,6.60
2018-04-20T11:00:14.432Z,9.10
2018-04-20T11:01:14.481Z,9.00
2018-04-20T11:02:14.507Z,6.40
2018-04-20T11:03:14.553Z,5.60
2018-04-20T11:04:14.599Z,8.00
2018-04-20T11:05:14.634Z,7.60
2018-04-20T11:06:14.682Z,7.70
2018-04-20T11:07:14.727Z,6.60
2018-04-20T11:08:14.760Z,5.40
2018-04-20T11:09:14.806Z,5.70
2018-04-20T11:10:14.852Z,8.70
2018-04-20T11:11:14.895Z,7.70
2018-04-20T11:12:14.934Z,7.40
2018-04-20T11:13:14.979Z,4.30
2018-04-20T11:14:15.025Z,7.50
2018-04-20T11:15:15.059Z,8.20
2018-04-20T11:16:15.105Z,7.50
2018-04-20T11:17:15.152Z,7.30
2018-04-20T11:18:15.201Z,6.30
2018-04-20T11:19:15.233Z,7.20
2018-04-20T11:20:15.285Z,5.90
2018-04-20T11:21:15.325Z,5.40
2018-04-20T11:22:15.371Z,5.50
2018-04-20T11:23:15.418Z,7.40
2018-04-20T11:24:15.450Z,6.30
2018-04-20T11:25:15.498Z,6.50
2018-04-20T11:26:15.544Z,5.20
2018-04-20T11:27:15.590Z,5.50
2018-04-20T11:28:15.625Z,7.70
2018-04-20T11:29:15.671Z,6.50
2018-04-20T11:30:15.718Z,7.50
2018-04-20T11:31:15.764Z,6.50
2018-04-20T11:32:15.810Z,6.70
2018-04-20T11:33:15.845Z,4.40
2018-04-20T11:34:15.889Z,5.80
2018-04-20T11:35:15.937Z,6.30
2018-04-20T11:36:15.982Z,6.50
2018-04-20T11:37:16.029Z,8.70
2018-04-20T11:38:16.078Z,9.40
2018-04-20T11:39:16.109Z,4.50
2018-04-20T11:40:16.156Z,6.40
2018-04-20T11:41:16.202Z,4.40
2018-04-20T11:42:16.249Z,3.80
2018-04-20T11:43:16.296Z,8.60
2018-04-20T11:44:16.338Z,5.00
2018-04-20T11:45:16.375Z,6.90
2018-04-20T11:46:16.421Z,7.10
2018-04-20T11:47:16.468Z,7.90
2018-04-20T11:48:16.514Z,8.50
2018-04-20T11:49:16.560Z,6.60
2018-04-20T11:50:16.596Z,5.30
2018-04-20T11:51:16.645Z,5.50
2018-04-20T11:52:16.689Z,5.00
2018-04-20T11:53:16.738Z,5.80
2018-04-20T11:54:16.784Z,10.10
2018-04-20T11:55:16.816Z,7.90
2018-04-20T11:56:16.861Z,5.30
2018-04-20T11:57:16.908Z,6.90
2018-04-20T11:58:16.954Z,5.80
2018-04-20T11:59:17.000Z,4.40
2018-04-20T12:00:17.047Z,4.70
2018-04-20T12:01:17.083Z,7.30
2018-04-20T12:02:17.175Z,6.40
2018-04-20T12:03:17.176Z,4.90
2018-04-20T12:04:17.219Z,5.20
2018-04-20T12:05:17.254Z,4.80
2018-04-20T12:06:17.367Z,8.80
2018-04-20T12:07:17.346Z,4.60
2018-04-20T12:08:17.397Z,4.40
2018-04-20T12:09:17.439Z,6.40
2018-04-20T12:10:17.474Z,5.00
2018-04-20T12:11:17.519Z,4.20
2018-04-20T12:12:17.567Z,4.30
2018-04-20T12:13:17.612Z,5.60
2018-04-20T12:14:17.650Z,6.00
2018-04-20T12:15:17.692Z,9.10
2018-04-20T12:16:17.738Z,5.50
2018-04-20T12:17:17.785Z,8.80
2018-04-20T12:18:17.820Z,8.00
2018-04-20T12:19:17.867Z,6.40
2018-04-20T12:20:17.912Z,4.40
2018-04-20T12:21:17.972Z,6.80
2018-04-20T12:22:17.992Z,11.00
2018-04-20T12:23:18.038Z,4.90
2018-04-20T12:24:18.084Z,6.60
2018-04-20T12:25:18.131Z,5.00
2018-04-20T12:26:18.166Z,5.40
2018-04-20T12:27:18.230Z,4.80
2018-04-20T12:28:18.261Z,6.30
2018-04-20T12:29:18.305Z,9.00
2018-04-20T12:30:18.352Z,3.90
2018-04-20T12:31:18.384Z,6.00
2018-04-20T12:32:18.432Z,5.90
2018-04-20T12:33:18.479Z,7.90
2018-04-20T12:34:18.513Z,6.10
2018-04-20T12:35:18.560Z,5.70
2018-04-20T12:36:18.605Z,5.20
2018-04-20T12:37:18.654Z,9.10
2018-04-20T12:38:18.688Z,8.30
2018-04-20T12:39:18.734Z,7.40
2018-04-20T12:40:18.776Z,4.30
2018-04-20T12:41:18.874Z,6.00
2018-04-20T12:42:18.859Z,5.20
2018-04-20T12:43:18.905Z,7.80
2018-04-20T12:44:18.974Z,4.70
2018-04-20T12:45:18.986Z,5.80
2018-04-20T12:46:19.030Z,5.10
2018-04-20T12:47:19.077Z,6.10
2018-04-20T12:48:19.123Z,4.10
2018-04-20T12:49:19.161Z,8.40
2018-04-20T12:50:19.204Z,5.70
2018-04-20T12:51:19.278Z,6.20
2018-04-20T12:52:19.283Z,4.70
2018-04-20T12:53:19.330Z,7.60
2018-04-20T12:54:19.376Z,4.10
2018-04-20T12:55:19.411Z,9.30
2018-04-20T12:56:19.457Z,4.30
2018-04-20T12:57:19.494Z,5.60
2018-04-20T12:58:19.540Z,4.30
2018-04-20T12:59:19.572Z,4.10
2018-04-20T13:00:19.619Z,6.10